createdAt,value
2022-11-29T00:00:47.094Z,3.76
2022-11-29T00:03:15.121Z,3.72
2022-11-29T00:05:41.814Z,3.66
2022-11-29T00:08:08.427Z,3.80
2022-11-29T00:10:38.080Z,3.80
2022-11-29T00:13:05.289Z,3.73
2022-11-29T00:15:38.780Z,3.77
2022-11-29T00:18:07.186Z,3.68
2022-11-29T00:20:34.730Z,3.72
2022-11-29T00:23:01.239Z,3.68
2022-11-29T00:25:28.173Z,3.77
2022-11-29T00:27:54.690Z,3.75
2022-11-29T00:30:21.583Z,3.65
2022-11-29T00:32:48.252Z,3.64
2022-11-29T00:35:14.768Z,3.63
2022-11-29T00:37:41.309Z,3.65
2022-11-29T00:40:08.597Z,3.67
2022-11-29T00:42:35.053Z,3.72
2022-11-29T00:45:01.552Z,3.71
2022-11-29T00:47:28.018Z,3.73
2022-11-29T00:49:54.596Z,3.76
2022-11-29T00:52:21.032Z,3.78
2022-11-29T00:54:47.602Z,3.72
2022-11-29T00:57:14.039Z,3.76
2022-11-29T00:59:40.560Z,3.74
2022-11-29T01:02:07.054Z,3.68
2022-11-29T01:04:33.632Z,3.67
2022-11-29T01:07:00.109Z,3.66
2022-11-29T01:09:26.663Z,3.63
2022-11-29T01:11:53.188Z,3.64
2022-11-29T01:14:19.781Z,3.72
2022-11-29T01:16:46.330Z,3.65
2022-11-29T01:19:12.889Z,3.71
2022-11-29T01:21:39.582Z,3.75
2022-11-29T01:24:06.216Z,3.71
2022-11-29T01:26:33.165Z,3.68
2022-11-29T01:28:59.796Z,3.65
2022-11-29T01:31:32.669Z,3.61
2022-11-29T01:34:01.876Z,3.62
2022-11-29T01:36:28.774Z,3.55
2022-11-29T01:38:55.380Z,3.64
2022-11-29T01:41:26.880Z,3.55
2022-11-29T01:44:11.730Z,3.51
2022-11-29T01:46:46.010Z,3.53
2022-11-29T01:49:21.698Z,3.56
2022-11-29T01:52:04.883Z,3.62
2022-11-29T01:54:34.076Z,3.55
2022-11-29T01:57:05.464Z,3.58
2022-11-29T01:59:32.347Z,3.54
2022-11-29T02:02:11.907Z,3.54
2022-11-29T02:04:41.603Z,3.55
2022-11-29T02:07:08.720Z,3.70
2022-11-29T02:09:35.227Z,3.51
2022-11-29T02:12:31.291Z,3.54
2022-11-29T02:15:09.887Z,3.54
2022-11-29T02:17:59.636Z,3.63
2022-11-29T02:20:50.867Z,3.59
2022-11-29T02:23:39.526Z,3.58
2022-11-29T02:26:36.438Z,3.54
2022-11-29T02:29:54.462Z,3.46
2022-11-29T02:32:42.467Z,3.57
2022-11-29T02:35:36.626Z,3.45
2022-11-29T02:38:18.419Z,3.49
2022-11-29T02:40:53.212Z,3.46
2022-11-29T02:43:57.987Z,3.43
2022-11-29T02:46:27.326Z,3.48
2022-11-29T02:49:16.815Z,3.56
2022-11-29T02:52:00.256Z,3.54
2022-11-29T02:54:52.438Z,3.49
2022-11-29T02:57:38.458Z,3.48
2022-11-29T03:00:07.203Z,3.46
2022-11-29T03:02:53.530Z,3.53
2022-11-29T03:05:38.788Z,3.47
2022-11-29T03:08:24.130Z,3.43
2022-11-29T03:11:07.220Z,3.41
2022-11-29T03:13:50.855Z,3.48
2022-11-29T03:16:48.549Z,3.48
2022-11-29T03:19:31.175Z,3.47
2022-11-29T03:22:12.754Z,3.36
2022-11-29T03:24:54.994Z,3.39
2022-11-29T03:27:28.788Z,3.43
2022-11-29T03:29:59.591Z,3.38
2022-11-29T03:32:33.174Z,3.33
2022-11-29T03:35:07.702Z,3.23
2022-11-29T03:37:52.965Z,3.34
2022-11-29T03:40:29.468Z,3.29
2022-11-29T03:43:06.977Z,3.19
2022-11-29T03:45:40.041Z,3.28
2022-11-29T03:48:12.466Z,3.33
2022-11-29T03:50:44.091Z,3.16
2022-11-29T03:53:25.557Z,3.15
2022-11-29T03:56:03.986Z,3.17
2022-11-29T03:59:00.183Z,3.21
2022-11-29T04:01:50.791Z,3.21
2022-11-29T04:04:54.833Z,3.15
2022-11-29T04:07:24.277Z,3.08
2022-11-29T04:09:59.610Z,3.05
2022-11-29T04:13:00.691Z,3.06
2022-11-29T04:16:03.533Z,3.14
2022-11-29T04:18:51.694Z,3.06
2022-11-29T04:21:34.969Z,3.06
2022-11-29T04:24:39.915Z,3.04
2022-11-29T04:27:18.188Z,2.97
2022-11-29T04:29:50.547Z,2.97
2022-11-29T04:32:39.688Z,3.03
2022-11-29T04:35:24.207Z,3.02
2022-11-29T04:38:15.365Z,3.09
2022-11-29T04:41:00.518Z,3.09
2022-11-29T04:43:50.613Z,3.16
2022-11-29T04:47:13.021Z,2.99
2022-11-29T04:50:24.351Z,2.98
2022-11-29T04:53:13.668Z,3.03
2022-11-29T04:55:56.783Z,3.00
2022-11-29T04:58:55.073Z,3.02
2022-11-29T05:01:36.188Z,3.06
2022-11-29T05:04:08.604Z,3.05
2022-11-29T05:06:43.848Z,3.05
2022-11-29T05:09:32.924Z,3.00
2022-11-29T05:12:14.197Z,3.02
2022-11-29T05:15:18.358Z,3.05
2022-11-29T05:18:07.470Z,3.03
2022-11-29T05:20:54.141Z,3.01
2022-11-29T05:23:38.456Z,3.08
2022-11-29T05:26:13.050Z,3.12
2022-11-29T05:28:57.992Z,3.06
2022-11-29T05:31:46.450Z,3.04
2022-11-29T05:34:35.153Z,3.04
2022-11-29T05:37:26.153Z,2.96
2022-11-29T05:40:27.028Z,2.98
2022-11-29T05:43:05.608Z,3.02
2022-11-29T05:45:41.182Z,3.00
2022-11-29T05:48:17.652Z,3.01
2022-11-29T05:51:10.333Z,3.03
2022-11-29T05:54:09.441Z,2.98
2022-11-29T05:56:53.217Z,2.94
2022-11-29T05:59:25.057Z,2.98
2022-11-29T06:02:05.977Z,3.06
2022-11-29T06:04:57.364Z,3.02
2022-11-29T06:07:38.804Z,3.00
2022-11-29T06:10:26.143Z,2.87
2022-11-29T06:13:11.444Z,2.83
2022-11-29T06:15:51.546Z,2.92
2022-11-29T06:18:18.012Z,3.01
2022-11-29T06:21:13.255Z,2.92
2022-11-29T06:23:41.428Z,2.87
2022-11-29T06:26:24.179Z,2.87
2022-11-29T06:28:50.617Z,2.90
2022-11-29T06:31:38.472Z,2.87
2022-11-29T06:34:46.552Z,2.83
2022-11-29T06:37:35.624Z,2.81
2022-11-29T06:40:02.376Z,2.79
2022-11-29T06:42:28.906Z,2.80
2022-11-29T06:44:55.825Z,2.78
2022-11-29T06:48:02.429Z,2.79
2022-11-29T06:51:06.371Z,2.92
2022-11-29T06:53:35.923Z,2.86
2022-11-29T06:56:04.987Z,2.94
2022-11-29T06:58:50.431Z,3.02
2022-11-29T07:01:28.796Z,2.93
2022-11-29T07:04:17.220Z,2.93
2022-11-29T07:06:44.026Z,2.90
2022-11-29T07:09:15.211Z,3.00
2022-11-29T07:11:42.931Z,2.97
2022-11-29T07:14:10.054Z,2.89
2022-11-29T07:17:04.333Z,3.03
2022-11-29T07:19:43.197Z,3.00
2022-11-29T07:22:40.132Z,2.99
2022-11-29T07:25:45.532Z,2.97
2022-11-29T07:28:51.093Z,3.03
2022-11-29T07:31:26.380Z,3.10
2022-11-29T07:34:04.909Z,3.00
2022-11-29T07:36:44.238Z,3.01
2022-11-29T07:39:20.260Z,3.01
2022-11-29T07:41:51.337Z,3.03
2022-11-29T07:44:37.332Z,3.01
2022-11-29T07:47:03.897Z,2.99
2022-11-29T07:49:30.600Z,2.97
2022-11-29T07:51:57.240Z,3.05
2022-11-29T07:54:24.028Z,2.96
2022-11-29T07:56:50.496Z,3.12
2022-11-29T07:59:17.093Z,3.10
2022-11-29T08:01:43.835Z,3.09
2022-11-29T08:04:10.412Z,3.19
2022-11-29T08:06:36.948Z,3.12
2022-11-29T08:09:04.609Z,3.14
2022-11-29T08:11:31.265Z,3.13
2022-11-29T08:13:59.774Z,3.13
2022-11-29T08:16:26.880Z,3.19
2022-11-29T08:18:53.592Z,3.17
2022-11-29T08:21:20.134Z,3.20
2022-11-29T08:23:47.717Z,3.25
2022-11-29T08:26:14.686Z,3.27
2022-11-29T08:28:41.311Z,3.26
2022-11-29T08:31:10.127Z,3.26
2022-11-29T08:33:38.621Z,3.48
2022-11-29T08:36:09.580Z,3.59
2022-11-29T08:38:36.101Z,3.72
2022-11-29T08:41:07.805Z,3.84
2022-11-29T08:43:34.680Z,4.03
2022-11-29T08:46:01.515Z,4.12
2022-11-29T08:48:28.054Z,4.05
2022-11-29T08:50:56.055Z,4.17
2022-11-29T08:53:41.729Z,3.98
2022-11-29T08:56:41.856Z,3.94
2022-11-29T08:58:57.251Z,4.17
2022-11-29T09:01:23.838Z,4.39
2022-11-29T09:03:59.485Z,4.17
2022-11-29T09:06:28.061Z,4.40
2022-11-29T09:08:56.458Z,4.28
2022-11-29T09:11:24.995Z,4.26
2022-11-29T09:13:54.468Z,4.50
2022-11-29T09:16:23.277Z,4.26
2022-11-29T09:18:51.834Z,4.12
2022-11-29T09:21:19.019Z,4.09
2022-11-29T09:23:46.241Z,4.12
2022-11-29T09:26:18.386Z,4.17
2022-11-29T09:28:45.842Z,4.13
2022-11-29T09:31:15.731Z,4.12
2022-11-29T09:33:42.511Z,4.05
2022-11-29T09:36:11.164Z,4.02
2022-11-29T09:38:38.192Z,4.08
2022-11-29T09:41:23.110Z,4.18
2022-11-29T09:44:17.123Z,4.16
2022-11-29T09:47:14.870Z,4.22
2022-11-29T09:49:45.899Z,4.15
2022-11-29T09:53:00.886Z,4.26
2022-11-29T09:55:33.238Z,4.12
2022-11-29T09:58:01.063Z,4.18
2022-11-29T10:00:29.544Z,4.21
2022-11-29T10:03:09.932Z,4.12
2022-11-29T10:05:44.348Z,4.30
2022-11-29T10:08:23.301Z,4.03
2022-11-29T10:10:52.979Z,4.08
2022-11-29T10:13:38.143Z,4.24
2022-11-29T10:16:13.041Z,4.23
2022-11-29T10:18:56.006Z,4.22
2022-11-29T10:21:28.002Z,4.28
2022-11-29T10:23:57.654Z,4.26
2022-11-29T10:26:25.893Z,4.26
2022-11-29T10:28:57.524Z,4.16
2022-11-29T10:31:29.442Z,4.23
2022-11-29T10:33:58.276Z,4.26
2022-11-29T10:36:40.460Z,4.16
2022-11-29T10:39:23.147Z,4.22
2022-11-29T10:41:54.674Z,4.17
2022-11-29T10:44:21.578Z,4.19
2022-11-29T10:46:48.420Z,4.25
2022-11-29T10:49:18.695Z,4.26
2022-11-29T10:51:46.833Z,4.23
2022-11-29T10:54:31.119Z,4.15
2022-11-29T10:56:59.490Z,4.13
2022-11-29T10:59:29.154Z,4.20
2022-11-29T11:01:57.247Z,4.41
2022-11-29T11:04:31.991Z,4.36
2022-11-29T11:07:02.285Z,4.29
2022-11-29T11:09:31.372Z,4.39
2022-11-29T11:12:00.245Z,4.51
2022-11-29T11:14:33.093Z,4.41
2022-11-29T11:17:20.855Z,4.41
2022-11-29T11:20:27.261Z,4.49
2022-11-29T11:23:02.251Z,4.49
2022-11-29T11:25:35.119Z,4.52
2022-11-29T11:28:21.911Z,4.67
2022-11-29T11:31:02.096Z,4.87
2022-11-29T11:33:35.274Z,4.58
2022-11-29T11:36:09.717Z,4.61
2022-11-29T11:38:48.973Z,4.64
2022-11-29T11:41:22.867Z,4.58
2022-11-29T11:43:59.955Z,4.74
2022-11-29T11:46:46.806Z,4.62
2022-11-29T11:49:21.081Z,4.58
2022-11-29T11:51:47.596Z,4.45
2022-11-29T11:54:15.436Z,4.43
2022-11-29T11:56:42.553Z,4.50
2022-11-29T11:59:21.040Z,4.51
2022-11-29T12:01:48.135Z,4.50
2022-11-29T12:04:23.529Z,4.42
2022-11-29T12:07:02.968Z,4.55
2022-11-29T12:09:46.421Z,4.57
2022-11-29T12:12:21.277Z,4.61
2022-11-29T12:15:04.611Z,4.72
2022-11-29T12:17:36.791Z,4.64
2022-11-29T12:20:10.488Z,4.65
2022-11-29T12:23:07.942Z,4.86
2022-11-29T12:25:46.772Z,4.69
2022-11-29T12:28:20.296Z,4.54
2022-11-29T12:31:03.197Z,4.51
2022-11-29T12:33:55.830Z,4.54
2022-11-29T12:36:37.313Z,4.55
2022-11-29T12:39:33.469Z,4.68
2022-11-29T12:42:35.965Z,4.54
2022-11-29T12:45:20.638Z,4.61
2022-11-29T12:48:02.264Z,4.68
2022-11-29T12:50:39.096Z,4.60
2022-11-29T12:53:22.544Z,4.64
2022-11-29T12:56:07.359Z,4.44
2022-11-29T12:58:56.288Z,4.27
2022-11-29T13:01:27.674Z,4.40
2022-11-29T13:04:09.124Z,4.31
2022-11-29T13:07:30.927Z,4.30
2022-11-29T13:10:17.894Z,4.36
2022-11-29T13:12:53.688Z,4.38
2022-11-29T13:15:51.546Z,4.47
2022-11-29T13:18:44.419Z,4.39
2022-11-29T13:21:15.498Z,4.54
2022-11-29T13:26:33.132Z,4.40
2022-11-29T13:29:01.779Z,4.37
2022-11-29T13:31:28.959Z,4.29
2022-11-29T13:34:01.479Z,4.41
2022-11-29T13:37:05.605Z,4.48
2022-11-29T13:39:39.382Z,4.40
2022-11-29T13:42:26.733Z,4.30
2022-11-29T13:45:07.597Z,4.31
2022-11-29T13:47:47.909Z,4.42
2022-11-29T13:50:49.928Z,4.33
2022-11-29T13:53:21.776Z,4.36
2022-11-29T13:56:02.080Z,4.38
2022-11-29T13:58:28.758Z,4.18
2022-11-29T14:01:01.630Z,4.29
2022-11-29T14:03:33.312Z,4.24
2022-11-29T14:06:03.318Z,4.22
2022-11-29T14:09:02.538Z,4.15
2022-11-29T14:11:46.040Z,4.17
2022-11-29T14:14:27.501Z,4.28
2022-11-29T14:17:29.076Z,4.29
2022-11-29T14:20:30.594Z,4.19
2022-11-29T14:23:07.586Z,4.01
2022-11-29T14:26:00.862Z,3.99
2022-11-29T14:28:31.289Z,3.86
2022-11-29T14:31:03.075Z,3.90
2022-11-29T14:33:56.494Z,3.89
2022-11-29T14:36:45.662Z,3.88
2022-11-29T14:39:43.632Z,3.92
2022-11-29T14:42:22.118Z,3.96
2022-11-29T14:44:48.596Z,3.87
2022-11-29T14:47:47.201Z,3.78
2022-11-29T14:50:35.784Z,3.77
2022-11-29T14:53:03.847Z,3.75
2022-11-29T14:55:36.539Z,3.80
2022-11-29T14:58:04.069Z,3.80
2022-11-29T15:00:57.179Z,3.71
2022-11-29T15:03:34.857Z,3.66
2022-11-29T15:06:25.127Z,3.70
2022-11-29T15:09:02.080Z,3.62
2022-11-29T15:11:37.652Z,3.59
2022-11-29T15:14:31.951Z,3.64
2022-11-29T15:17:29.133Z,3.72
2022-11-29T15:20:13.911Z,3.61
2022-11-29T15:22:52.401Z,3.74
2022-11-29T15:25:31.651Z,3.66
2022-11-29T15:28:03.709Z,3.66
2022-11-29T15:30:38.983Z,3.64
2022-11-29T15:33:08.684Z,3.53
2022-11-29T15:35:36.226Z,3.52
2022-11-29T15:38:02.877Z,3.31
2022-11-29T15:40:35.166Z,3.40
2022-11-29T15:43:16.579Z,3.27
2022-11-29T15:45:51.348Z,3.49
2022-11-29T15:48:25.217Z,3.38
2022-11-29T15:51:03.824Z,3.36
2022-11-29T15:53:39.781Z,3.31
2022-11-29T15:56:33.547Z,3.38
2022-11-29T15:59:08.485Z,3.37
2022-11-29T16:01:36.137Z,3.34
2022-11-29T16:04:02.789Z,3.36
2022-11-29T16:06:38.184Z,3.40
2022-11-29T16:09:09.819Z,3.38
2022-11-29T16:11:37.160Z,3.41
2022-11-29T16:14:23.824Z,3.33
2022-11-29T16:16:52.639Z,3.41
2022-11-29T16:19:28.473Z,3.39
2022-11-29T16:22:11.600Z,3.49
2022-11-29T16:24:40.124Z,3.46
2022-11-29T16:27:07.969Z,3.34
2022-11-29T16:29:37.251Z,3.38
2022-11-29T16:32:27.106Z,3.38
2022-11-29T16:34:54.932Z,3.34
2022-11-29T16:37:26.795Z,3.38
2022-11-29T16:39:59.442Z,3.44
2022-11-29T16:42:30.431Z,3.50
2022-11-29T16:45:05.632Z,3.38
2022-11-29T16:47:46.849Z,3.28
2022-11-29T16:50:16.740Z,3.32
2022-11-29T16:52:43.923Z,3.38
2022-11-29T16:55:10.402Z,3.46
2022-11-29T16:57:37.882Z,3.39
2022-11-29T17:00:33.969Z,3.35
2022-11-29T17:03:00.747Z,3.35
2022-11-29T17:05:27.583Z,3.43
2022-11-29T17:07:54.669Z,3.31
2022-11-29T17:10:24.262Z,3.44
2022-11-29T17:12:51.278Z,3.31
2022-11-29T17:15:17.796Z,3.32
2022-11-29T17:17:44.333Z,3.40
2022-11-29T17:20:13.168Z,3.31
2022-11-29T17:22:40.364Z,3.38
2022-11-29T17:25:07.415Z,3.39
2022-11-29T17:27:33.904Z,3.33
2022-11-29T17:30:00.451Z,3.37
2022-11-29T17:32:27.320Z,3.44
2022-11-29T17:34:54.341Z,3.38
2022-11-29T17:37:20.957Z,3.41
2022-11-29T17:39:49.197Z,3.41
2022-11-29T17:42:15.936Z,3.36
2022-11-29T17:44:42.501Z,3.41
2022-11-29T17:47:09.247Z,3.41
2022-11-29T17:49:35.848Z,3.42
2022-11-29T17:52:02.673Z,3.49
2022-11-29T17:54:32.985Z,3.50
2022-11-29T17:57:00.967Z,3.41
2022-11-29T17:59:27.410Z,3.40
2022-11-29T18:01:53.841Z,3.37
2022-11-29T18:04:20.523Z,3.37
2022-11-29T18:06:50.256Z,3.40
2022-11-29T18:09:18.278Z,3.51
2022-11-29T18:11:48.640Z,3.43
2022-11-29T18:14:23.308Z,3.38
2022-11-29T18:16:50.318Z,3.39
2022-11-29T18:19:19.164Z,3.48
2022-11-29T18:21:45.927Z,3.52
2022-11-29T18:24:12.651Z,3.49
2022-11-29T18:26:39.740Z,3.31
2022-11-29T18:29:07.350Z,3.44
2022-11-29T18:31:34.716Z,3.46
2022-11-29T18:34:02.027Z,3.40
2022-11-29T18:36:34.245Z,3.42
2022-11-29T18:39:09.895Z,3.39
2022-11-29T18:41:37.532Z,3.30
2022-11-29T18:44:05.500Z,3.34
2022-11-29T18:46:32.982Z,3.33
2022-11-29T18:49:01.445Z,3.39
2022-11-29T18:51:30.312Z,3.38
2022-11-29T18:53:58.327Z,3.45
2022-11-29T18:56:28.045Z,3.37
2022-11-29T18:58:59.167Z,3.33
2022-11-29T19:01:28.119Z,3.36
2022-11-29T19:03:56.822Z,3.31
2022-11-29T19:06:28.896Z,3.24
2022-11-29T19:08:58.477Z,3.28
2022-11-29T19:11:30.179Z,3.32
2022-11-29T19:13:59.982Z,3.30
2022-11-29T19:16:28.996Z,3.26
2022-11-29T19:18:57.595Z,3.27
2022-11-29T19:21:26.323Z,3.34
2022-11-29T19:23:54.889Z,3.28
2022-11-29T19:26:22.485Z,3.19
2022-11-29T19:28:49.159Z,3.19
2022-11-29T19:31:17.853Z,3.27
2022-11-29T19:33:45.632Z,3.22
2022-11-29T19:36:17.712Z,3.19
2022-11-29T19:38:48.849Z,3.22
2022-11-29T19:41:28.265Z,3.18
2022-11-29T19:44:00.102Z,3.21
2022-11-29T19:46:29.271Z,3.25
2022-11-29T19:48:56.894Z,3.25
2022-11-29T19:51:23.729Z,3.28
2022-11-29T19:53:54.699Z,3.13
2022-11-29T19:56:21.644Z,3.21
2022-11-29T19:58:48.802Z,3.13
2022-11-29T20:01:18.551Z,3.35
2022-11-29T20:03:45.299Z,3.21
2022-11-29T20:06:13.655Z,3.15
2022-11-29T20:08:40.773Z,3.16
2022-11-29T20:11:28.584Z,3.23
2022-11-29T20:14:02.594Z,3.07
2022-11-29T20:16:30.315Z,3.12
2022-11-29T20:18:58.027Z,3.07
2022-11-29T20:21:26.006Z,3.03
2022-11-29T20:24:00.169Z,3.00
2022-11-29T20:26:30.553Z,2.92
2022-11-29T20:28:57.211Z,2.93
2022-11-29T20:31:24.102Z,2.98
2022-11-29T20:33:52.906Z,2.85
2022-11-29T20:36:29.174Z,2.88
2022-11-29T20:39:06.207Z,2.91
2022-11-29T20:41:38.584Z,2.90
2022-11-29T20:44:05.315Z,2.89
2022-11-29T20:46:32.127Z,2.78
2022-11-29T20:49:04.713Z,2.87
2022-11-29T20:51:40.263Z,2.76
2022-11-29T20:54:06.781Z,2.90
2022-11-29T20:56:33.301Z,2.91
2022-11-29T20:58:59.912Z,2.85
2022-11-29T21:01:26.466Z,2.77
2022-11-29T21:03:53.854Z,2.85
2022-11-29T21:06:20.416Z,2.84
2022-11-29T21:08:48.223Z,2.81
2022-11-29T21:11:14.825Z,2.78
2022-11-29T21:13:41.727Z,2.76
2022-11-29T21:16:11.133Z,2.72
2022-11-29T21:18:38.206Z,2.96
2022-11-29T21:21:20.780Z,2.91
2022-11-29T21:24:03.106Z,2.90
2022-11-29T21:26:42.176Z,2.92
2022-11-29T21:29:19.264Z,2.96
2022-11-29T21:31:47.661Z,2.85
2022-11-29T21:34:14.283Z,2.84
2022-11-29T21:36:41.181Z,2.79
2022-11-29T21:39:10.798Z,2.75
2022-11-29T21:41:37.251Z,2.78
2022-11-29T21:44:07.000Z,2.86
2022-11-29T21:46:34.491Z,2.90
2022-11-29T21:49:01.104Z,2.84
2022-11-29T21:51:27.567Z,2.84
2022-11-29T21:53:54.079Z,2.81
2022-11-29T21:56:20.695Z,2.84
2022-11-29T21:58:47.309Z,2.85
2022-11-29T22:01:16.586Z,2.87
2022-11-29T22:03:44.252Z,3.00
2022-11-29T22:06:11.985Z,2.87
2022-11-29T22:08:40.609Z,2.90
2022-11-29T22:11:12.645Z,2.94
2022-11-29T22:13:59.649Z,2.95
2022-11-29T22:16:26.324Z,2.94
2022-11-29T22:18:53.232Z,2.93
2022-11-29T22:21:20.072Z,2.96
2022-11-29T22:23:46.564Z,3.00
2022-11-29T22:26:13.465Z,3.02
2022-11-29T22:28:39.933Z,2.96
2022-11-29T22:31:09.499Z,3.02
2022-11-29T22:33:36.575Z,2.96
2022-11-29T22:36:08.271Z,3.01
2022-11-29T22:38:35.079Z,2.95
2022-11-29T22:41:04.487Z,2.98
2022-11-29T22:43:32.337Z,2.98
2022-11-29T22:46:05.995Z,2.97
2022-11-29T22:48:38.180Z,2.98
2022-11-29T22:51:11.321Z,2.99
2022-11-29T22:53:39.584Z,2.97
2022-11-29T22:56:08.677Z,2.98
2022-11-29T22:58:36.182Z,2.91
2022-11-29T23:01:05.162Z,2.93
2022-11-29T23:03:36.557Z,2.88
2022-11-29T23:06:08.065Z,2.91
2022-11-29T23:08:35.170Z,2.88
2022-11-29T23:11:06.557Z,2.94
2022-11-29T23:13:37.812Z,2.98
2022-11-29T23:16:06.240Z,2.90
2022-11-29T23:18:33.004Z,2.84
2022-11-29T23:21:05.412Z,2.84
2022-11-29T23:23:32.077Z,2.83
2022-11-29T23:25:59.435Z,2.78
2022-11-29T23:28:26.716Z,2.68
2022-11-29T23:30:54.486Z,2.72
2022-11-29T23:33:24.222Z,2.72
2022-11-29T23:35:51.496Z,2.75
2022-11-29T23:38:18.331Z,2.73
2022-11-29T23:40:44.850Z,2.65
2022-11-29T23:43:11.394Z,2.65
2022-11-29T23:45:41.871Z,2.73
2022-11-29T23:48:08.457Z,2.73
2022-11-29T23:50:35.109Z,2.68
2022-11-29T23:53:01.653Z,2.64
2022-11-29T23:55:28.166Z,2.57
2022-11-29T23:57:54.640Z,2.63
